Pagrindinis puslapis
METAR-TAF:

METAR-TAF

Oro uostai :

Voronežas, Rusija

platuma: 51-39N, ilguma: 039-15E, Aukštis: 154 m

Dabartinis oras

Ataskaita buvo paskelbta 28 minutes, ne 10:30 UTC
Vėjas 14 kt iš Vakarų
Temperatūra 2°C
Drėgmė 87%
Slėgis 1004 hPa
Matomumas 10 km arba daugiau
Su prošvaistėmis ne aukštis 3200 ft

METAR: UUOO 251030Z 26007MPS 9999 BKN032 02/M00 Q1004 R30/290150 NOSIG RMK QFE740

Laikas: 13:58 (10:58 UTC)

Prognozė

Ataskaita buvo paskelbta 2 valandos ir 58 minutes, ne 08:00 UTC
Prognozė galioja nuo 25 metu 09 UTC su 25 metu 18 UTC
Vėjas 14 kt iš Vakarų su gūsio iki 23 kt
Matomumas: 7000 m
Apsiniaukę ne aukštis 1000 ft
sniegas, lietus

TAF: UUOO 250800Z 2509/2518 27007G12MPS 7000 -SNRA OVC010

Orai ataskaitas ir orų prognozės (METAR, TAF).

turimą stotys yra geltonos ir raudonos taškus žemėlapyje.

Perkelti pele per norėdami pamatyti stoties vardą.

Tada spustelėkite, norėdami matyti oro stebėjimo ir prognozės.

Norėdami pakeisti žemėlapį: spustelėkite ant žalios mygtukų su juodo kryžiaus žemyn,; žalią mygtuką su brūkšneliu, jei norite nutolinti; arba žalių rodyklių gretimoms žemėlapius.


METAR-TAF: